Time;durP1;ratioP1;P1;durP2;ratioP2;P2;SDS_P1;SDS_P2;PMS_P1;PMS_P2;Temp;Humidity;BMP_temperature;BMP_pressure;BME280_temperature;BME280_humidity;BME280_pressure;Samples;Min_cycle;Max_cycle;Signal;HPM_P1;HPM_P2
2022/07/14 00:02:24;;;;;;;2.00;1.20;;;20.70;93.70;;;;;;5077678;28;20179;-82
2022/07/14 00:04:50;;;;;;;1.40;1.10;;;;;;;;;;5077088;28;20182;-83
2022/07/14 00:07:16;;;;;;;2.50;1.10;;;20.60;94.30;;;;;;5074841;28;20225;-82
2022/07/14 00:09:42;;;;;;;1.43;0.90;;;;;;;;;;5074248;28;20190;-82
2022/07/14 00:12:08;;;;;;;3.20;1.00;;;;;;;;;;5074078;28;20573;-82
2022/07/14 00:14:34;;;;;;;4.17;1.23;;;20.40;92.60;;;;;;5076454;28;20199;-83
2022/07/14 00:17:00;;;;;;;1.80;0.90;;;;;;;;;;5079037;28;20201;-83
2022/07/14 00:19:26;;;;;;;3.90;1.17;;;20.20;97.60;;;;;;5080732;28;20173;-83
2022/07/14 00:21:52;;;;;;;2.50;1.17;;;20.40;92.30;;;;;;5079251;28;20176;-83
2022/07/14 00:24:18;;;;;;;1.53;1.30;;;;;;;;;;5079685;28;20593;-83
2022/07/14 00:26:44;;;;;;;1.07;0.93;;;20.40;93.10;;;;;;5080180;28;20642;-83
2022/07/14 00:29:09;;;;;;;1.50;1.10;;;20.40;93.30;;;;;;5080648;28;20202;-83
2022/07/14 00:31:36;;;;;;;4.40;1.20;;;;;;;;;;5081476;28;20637;-83
2022/07/14 00:34:01;;;;;;;1.30;1.20;;;20.40;92.00;;;;;;5082402;28;20203;-83
2022/07/14 00:36:27;;;;;;;1.00;0.90;;;20.40;92.50;;;;;;5082319;28;20179;-83
2022/07/14 00:38:54;;;;;;;3.10;0.93;;;20.40;92.00;;;;;;5083986;28;20194;-83
2022/07/14 00:41:20;;;;;;;2.53;1.10;;;20.40;92.90;;;;;;5083015;28;20210;-83
2022/07/14 00:43:46;;;;;;;1.93;1.33;;;20.40;92.40;;;;;;5082499;28;20203;-83
2022/07/14 00:46:12;;;;;;;2.37;0.97;;;;;;;;;;5083773;28;20173;-83
2022/07/14 00:48:37;;;;;;;4.00;1.10;;;20.40;92.20;;;;;;5081299;28;20187;-83
2022/07/14 00:51:03;;;;;;;2.77;1.20;;;20.30;93.60;;;;;;5082241;28;20177;-83
2022/07/14 00:53:29;;;;;;;4.10;1.70;;;20.30;93.10;;;;;;5082384;28;20199;-83
2022/07/14 00:55:55;;;;;;;2.10;1.20;;;20.30;94.00;;;;;;5083737;28;20173;-83
2022/07/14 00:58:21;;;;;;;1.53;0.90;;;20.30;93.90;;;;;;5081287;28;20674;-83
2022/07/14 01:00:47;;;;;;;3.30;0.90;;;;;;;;;;5081853;28;20212;-83
2022/07/14 01:03:13;;;;;;;1.13;1.03;;;20.30;93.30;;;;;;5081419;28;20202;-83
2022/07/14 01:05:39;;;;;;;2.60;1.00;;;;;;;;;;5081959;28;20699;-83
2022/07/14 01:08:05;;;;;;;1.43;0.97;;;20.30;93.50;;;;;;5080980;28;20663;-83
2022/07/14 01:10:31;;;;;;;1.60;1.03;;;20.30;90.90;;;;;;5083092;28;20186;-83
2022/07/14 01:13:00;;;;;;;1.50;1.07;;;20.30;91.30;;;;;;5081713;28;20204;-83
2022/07/14 01:15:26;;;;;;;1.93;1.00;;;20.30;91.60;;;;;;5081628;28;20187;-83
2022/07/14 01:17:52;;;;;;;5.13;1.07;;;20.30;91.50;;;;;;5082838;28;20213;-83
2022/07/14 01:20:18;;;;;;;3.27;1.07;;;20.30;92.00;;;;;;5083869;28;20175;-83
2022/07/14 01:22:48;;;;;;;3.60;1.10;;;20.30;91.50;;;;;;5082316;28;20193;-84
2022/07/14 01:25:15;;;;;;;1.90;1.10;;;20.30;91.30;;;;;;5081318;28;20176;-83
2022/07/14 01:27:40;;;;;;;1.23;0.70;;;20.30;91.20;;;;;;5081253;28;20187;-82
2022/07/14 01:30:07;;;;;;;1.47;1.00;;;20.30;91.00;;;;;;5083150;28;20543;-83
2022/07/14 01:32:34;;;;;;;1.23;1.13;;;20.30;90.40;;;;;;5082790;28;20179;-83
2022/07/14 01:34:59;;;;;;;1.47;0.83;;;20.40;90.70;;;;;;5081357;28;20191;-83
2022/07/14 01:37:25;;;;;;;0.80;0.80;;;20.30;91.00;;;;;;5082493;28;20702;-83
2022/07/14 01:39:51;;;;;;;2.37;1.20;;;20.30;90.60;;;;;;5083068;28;20271;-83
2022/07/14 01:42:17;;;;;;;1.33;1.00;;;20.30;90.90;;;;;;5080488;28;20176;-83
2022/07/14 01:44:43;;;;;;;1.43;0.80;;;20.30;91.20;;;;;;5079817;28;20183;-83
2022/07/14 01:47:09;;;;;;;5.17;0.90;;;20.30;90.50;;;;;;5080130;28;20187;-83
2022/07/14 01:49:35;;;;;;;1.10;0.90;;;20.20;90.50;;;;;;5081235;28;20254;-83
2022/07/14 01:52:01;;;;;;;3.83;1.13;;;20.20;90.50;;;;;;5080258;28;20187;-83
2022/07/14 01:54:27;;;;;;;1.30;1.17;;;20.20;90.40;;;;;;5081622;28;20210;-83
2022/07/14 01:56:53;;;;;;;2.90;1.20;;;20.20;91.20;;;;;;5080000;28;20290;-83
2022/07/14 01:59:18;;;;;;;1.20;1.10;;;20.20;90.40;;;;;;5079339;28;20211;-83
2022/07/14 02:01:46;;;;;;;3.07;1.10;;;20.10;90.50;;;;;;5079666;28;20222;-83
2022/07/14 02:04:14;;;;;;;0.90;0.90;;;20.10;90.40;;;;;;5078586;28;20570;-83
2022/07/14 02:06:42;;;;;;;1.00;0.90;;;20.10;90.90;;;;;;5079166;28;20228;-83
2022/07/14 02:09:08;;;;;;;1.67;1.00;;;20.10;90.80;;;;;;5077857;28;20179;-83
2022/07/14 02:14:19;;;;;;;2.33;1.00;;;20.10;91.20;;;;;;5078067;28;20208;-83
2022/07/14 02:16:44;;;;;;;3.37;1.00;;;20.00;91.40;;;;;;5076628;28;20206;-83
2022/07/14 02:19:10;;;;;;;1.40;1.10;;;20.00;91.50;;;;;;5075171;28;20198;-82
2022/07/14 02:21:39;;;;;;;1.40;0.90;;;19.90;91.50;;;;;;5076025;28;20278;-83
2022/07/14 02:24:05;;;;;;;2.43;0.90;;;19.90;91.60;;;;;;5080335;28;20222;-83
2022/07/14 02:26:31;;;;;;;2.37;0.90;;;19.80;91.70;;;;;;5080947;28;20171;-83
2022/07/14 02:28:56;;;;;;;1.63;0.93;;;19.70;91.40;;;;;;5080111;28;20187;-83
2022/07/14 02:31:22;;;;;;;1.20;1.10;;;;;;;;;;5081826;28;20175;-83
2022/07/14 02:33:48;;;;;;;2.33;1.23;;;19.60;91.40;;;;;;5082913;28;20236;-83
2022/07/14 02:36:14;;;;;;;1.30;1.20;;;;;;;;;;5081350;28;20269;-83
2022/07/14 02:38:40;;;;;;;2.53;1.20;;;19.60;92.00;;;;;;5081711;28;20206;-84
2022/07/14 02:41:06;;;;;;;3.27;1.10;;;;;;;;;;5080812;28;20200;-83
2022/07/14 02:43:33;;;;;;;1.07;0.90;;;19.40;92.10;;;;;;5080734;28;20202;-83
2022/07/14 02:45:59;;;;;;;3.20;1.00;;;19.40;92.60;;;;;;5082263;28;20170;-83
2022/07/14 02:48:25;;;;;;;2.00;1.00;;;19.40;92.00;;;;;;5081113;28;20174;-83
2022/07/14 02:50:56;;;;;;;1.73;1.27;;;19.40;92.60;;;;;;5081400;28;20288;-83
2022/07/14 02:53:22;;;;;;;1.20;1.00;;;19.40;92.10;;;;;;5083298;28;20194;-83
2022/07/14 02:55:48;;;;;;;5.57;1.30;;;19.40;92.80;;;;;;5080235;28;20211;-83
2022/07/14 02:58:13;;;;;;;2.50;1.10;;;19.40;92.70;;;;;;5081845;28;20195;-83
2022/07/14 03:00:39;;;;;;;2.67;1.03;;;19.40;92.80;;;;;;5081788;28;20171;-83
2022/07/14 03:03:06;;;;;;;1.43;1.00;;;;;;;;;;5080917;28;20325;-83
2022/07/14 03:05:32;;;;;;;1.20;1.10;;;19.40;91.80;;;;;;5081106;28;20189;-83
2022/07/14 03:07:57;;;;;;;0.90;0.80;;;19.40;92.00;;;;;;5080917;28;20182;-83
2022/07/14 03:10:24;;;;;;;1.20;1.07;;;;;;;;;;5082912;28;20176;-83
2022/07/14 03:12:49;;;;;;;1.97;0.90;;;19.40;91.70;;;;;;5082834;28;20229;-83
2022/07/14 03:15:15;;;;;;;1.80;1.20;;;;;;;;;;5083471;28;20170;-83
2022/07/14 03:17:41;;;;;;;5.13;1.00;;;19.40;91.60;;;;;;5080270;28;20207;-83
2022/07/14 03:20:07;;;;;;;2.97;1.10;;;19.40;91.50;;;;;;5080332;28;20182;-83
2022/07/14 03:22:33;;;;;;;1.37;0.90;;;19.40;91.30;;;;;;5080710;28;20183;-83
2022/07/14 03:24:59;;;;;;;2.97;1.30;;;;;;;;;;5080960;28;20201;-83
2022/07/14 03:27:25;;;;;;;2.57;1.40;;;19.40;91.60;;;;;;5081915;28;20666;-83
2022/07/14 03:29:51;;;;;;;2.13;1.20;;;19.40;92.10;;;;;;5081209;28;20186;-85
2022/07/14 03:32:17;;;;;;;4.67;1.40;;;;;;;;;;5081271;28;20291;-83
2022/07/14 03:34:43;;;;;;;1.40;1.10;;;19.30;91.90;;;;;;5081856;28;20196;-83
2022/07/14 03:37:09;;;;;;;1.53;1.20;;;;;;;;;;5080334;28;20259;-83
2022/07/14 03:39:35;;;;;;;1.67;1.30;;;19.30;92.20;;;;;;5079678;28;20598;-83
2022/07/14 03:42:01;;;;;;;1.50;1.40;;;19.30;93.50;;;;;;5081251;28;20574;-83
2022/07/14 03:44:27;;;;;;;1.10;1.00;;;;;;;;;;5080811;28;20268;-83
2022/07/14 03:46:53;;;;;;;2.03;1.00;;;19.40;92.60;;;;;;5080457;28;20181;-82
2022/07/14 03:49:19;;;;;;;2.43;1.23;;;19.30;93.30;;;;;;5080439;28;20266;-83
2022/07/14 03:51:45;;;;;;;3.07;1.20;;;;;;;;;;5082072;28;20175;-83
2022/07/14 03:54:11;;;;;;;3.00;1.17;;;19.20;92.70;;;;;;5080983;28;20281;-83
2022/07/14 03:56:37;;;;;;;1.40;0.90;;;19.20;93.00;;;;;;5080118;28;20199;-83
2022/07/14 03:59:04;;;;;;;1.53;1.20;;;19.20;93.00;;;;;;5080718;28;20242;-83
2022/07/14 04:01:30;;;;;;;3.03;1.17;;;19.10;93.00;;;;;;5079330;28;20198;-83
2022/07/14 04:03:56;;;;;;;2.00;1.00;;;;;;;;;;5079607;28;20232;-83
2022/07/14 04:06:22;;;;;;;2.83;1.00;;;18.90;99.90;;;;;;5079771;28;20175;-83
2022/07/14 04:08:48;;;;;;;1.27;1.17;;;;;;;;;;5082744;28;20183;-83
2022/07/14 04:11:15;;;;;;;4.10;1.00;;;19.20;99.90;;;;;;5083723;28;20187;-83
2022/07/14 04:13:41;;;;;;;1.70;1.17;;;19.00;93.20;;;;;;5083895;28;20206;-82
2022/07/14 04:16:07;;;;;;;1.90;1.10;;;;;;;;;;5081546;28;20692;-83
2022/07/14 04:18:33;;;;;;;4.23;1.20;;;18.90;99.90;;;;;;5082284;28;20199;-82
2022/07/14 04:20:59;;;;;;;4.77;1.07;;;;;;;;;;5080039;28;20606;-82
2022/07/14 04:23:25;;;;;;;2.63;1.17;;;18.90;99.90;;;;;;5079996;28;20190;-82
2022/07/14 04:25:51;;;;;;;2.37;1.23;;;;;;;;;;5077924;28;20185;-82
2022/07/14 04:28:18;;;;;;;1.10;1.00;;;;;;;;;;5078083;28;20174;-82
2022/07/14 04:30:44;;;;;;;2.03;1.03;;;;;;;;;;5082218;28;20536;-82
2022/07/14 04:33:10;;;;;;;3.90;1.10;;;;;;;;;;5084401;28;20199;-83
2022/07/14 04:35:37;;;;;;;1.30;1.07;;;19.00;92.80;;;;;;5083046;28;20644;-83
2022/07/14 04:38:03;;;;;;;1.60;0.87;;;;;;;;;;5083181;28;20231;-83
2022/07/14 04:40:29;;;;;;;2.70;1.00;;;;;;;;;;5083606;28;20185;-83
2022/07/14 04:42:55;;;;;;;2.80;1.13;;;;;;;;;;5083826;28;20266;-83
2022/07/14 04:45:22;;;;;;;2.40;1.00;;;;;;;;;;5083339;28;20179;-84
2022/07/14 04:47:49;;;;;;;1.67;1.10;;;18.90;93.50;;;;;;5085502;28;20182;-84
2022/07/14 04:52:59;;;;;;;1.10;1.00;;;19.00;93.60;;;;;;5086741;28;20363;-85
2022/07/14 04:55:25;;;;;;;1.57;1.07;;;;;;;;;;5085502;28;20191;-83
2022/07/14 04:57:51;;;;;;;2.37;1.10;;;;;;;;;;5086781;28;20667;-83
2022/07/14 05:00:17;;;;;;;1.53;1.20;;;19.20;99.90;;;;;;5087114;28;20505;-83
2022/07/14 05:02:43;;;;;;;2.33;1.20;;;;;;;;;;5086789;28;20250;-84
2022/07/14 05:05:10;;;;;;;1.50;1.00;;;;;;;;;;5087115;28;20182;-84
2022/07/14 05:07:36;;;;;;;1.30;1.03;;;;;;;;;;5086741;28;20704;-84
2022/07/14 05:10:03;;;;;;;4.50;1.20;;;19.30;93.80;;;;;;5086621;28;20183;-84
2022/07/14 05:12:30;;;;;;;3.10;1.30;;;;;;;;;;5084793;28;20185;-84
2022/07/14 05:14:56;;;;;;;2.70;1.30;;;19.70;99.90;;;;;;5086184;28;20174;-84
2022/07/14 05:17:22;;;;;;;2.90;1.30;;;;;;;;;;5083109;28;20231;-84
2022/07/14 05:19:49;;;;;;;2.67;1.20;;;;;;;;;;5084971;28;20183;-85
2022/07/14 05:22:16;;;;;;;1.27;1.10;;;;;;;;;;5082860;28;20178;-85
2022/07/14 05:24:42;;;;;;;2.67;1.23;;;;;;;;;;5085493;28;20176;-85
2022/07/14 05:27:07;;;;;;;2.73;1.47;;;19.80;99.90;;;;;;5084347;28;20191;-84
2022/07/14 05:29:33;;;;;;;3.30;1.30;;;;;;;;;;5083725;28;20179;-83
2022/07/14 05:32:00;;;;;;;1.73;1.20;;;;;;;;;;5083686;28;20182;-84
2022/07/14 05:34:26;;;;;;;5.70;1.50;;;;;;;;;;5083414;28;20782;-84
2022/07/14 05:36:52;;;;;;;3.27;1.50;;;;;;;;;;5083456;28;20266;-84
2022/07/14 05:39:19;;;;;;;1.50;1.20;;;;;;;;;;5082709;28;20204;-85
2022/07/14 05:41:44;;;;;;;1.43;1.20;;;20.30;99.90;;;;;;5081872;28;20173;-83
2022/07/14 05:44:10;;;;;;;1.90;1.20;;;;;;;;;;5084046;28;20271;-84
2022/07/14 05:46:36;;;;;;;2.03;1.30;;;;;;;;;;5085029;28;20265;-86
2022/07/14 05:49:03;;;;;;;2.07;1.23;;;;;;;;;;5085503;28;20172;-83
2022/07/14 05:51:28;;;;;;;3.00;1.10;;;20.50;93.20;;;;;;5081612;28;20177;-84
2022/07/14 05:53:54;;;;;;;1.53;1.00;;;;;;;;;;5083811;28;20223;-83
2022/07/14 05:56:21;;;;;;;1.10;1.00;;;20.90;99.90;;;;;;5081516;28;20562;-85
2022/07/14 05:59:37;;;;;;;6.80;1.20;;;20.70;91.50;;;;;;5081693;28;20544;-83
2022/07/14 06:02:03;;;;;;;2.07;1.20;;;20.70;99.90;;;;;;5081513;28;20184;-84
2022/07/14 06:04:29;;;;;;;1.40;1.17;;;20.70;99.90;;;;;;5080511;28;20217;-85
2022/07/14 06:06:55;;;;;;;5.07;1.33;;;;;;;;;;5078922;28;20298;-84
2022/07/14 06:09:21;;;;;;;1.40;1.03;;;21.00;99.90;;;;;;5078873;28;20373;-84
2022/07/14 06:11:47;;;;;;;1.57;1.20;;;;;;;;;;5079545;28;20184;-83
2022/07/14 06:14:14;;;;;;;3.63;1.07;;;21.30;91.80;;;;;;5080720;28;20201;-83
2022/07/14 06:16:40;;;;;;;4.50;1.07;;;;;;;;;;5080184;28;20188;-84
2022/07/14 06:19:06;;;;;;;5.03;1.17;;;;;;;;;;5080668;28;20173;-84
2022/07/14 06:21:32;;;;;;;1.40;1.23;;;;;;;;;;5079624;28;20181;-84
2022/07/14 06:23:58;;;;;;;2.53;1.17;;;;;;;;;;5080600;28;20208;-84
2022/07/14 06:26:25;;;;;;;4.73;1.43;;;;;;;;;;5089971;28;20172;-83
2022/07/14 06:28:50;;;;;;;2.63;1.20;;;21.60;99.90;;;;;;5097369;28;20234;-83
2022/07/14 06:31:16;;;;;;;4.73;1.50;;;21.50;91.90;;;;;;5097695;28;20203;-83
2022/07/14 06:33:43;;;;;;;2.80;1.40;;;;;;;;;;5095978;28;20203;-82
2022/07/14 06:36:09;;;;;;;2.17;1.33;;;;;;;;;;5087540;28;20282;-83
2022/07/14 06:38:35;;;;;;;3.13;1.10;;;21.70;99.90;;;;;;5095330;28;20258;-83
2022/07/14 06:41:01;;;;;;;2.50;1.43;;;;;;;;;;5098028;28;20181;-82
2022/07/14 06:43:27;;;;;;;1.97;1.10;;;;;;;;;;5081148;28;20269;-83
2022/07/14 06:45:53;;;;;;;1.20;1.10;;;21.50;99.90;;;;;;5078687;28;20654;-83
2022/07/14 06:48:21;;;;;;;1.33;1.20;;;;;;;;;;5077726;28;20172;-83
2022/07/14 06:50:47;;;;;;;5.87;1.37;;;;;;;;;;5076691;28;20281;-83
2022/07/14 06:53:13;;;;;;;1.67;1.37;;;21.90;91.80;;;;;;5076799;28;20229;-82
2022/07/14 06:55:39;;;;;;;3.90;1.93;;;21.70;99.90;;;;;;5078099;28;20169;-82
2022/07/14 06:58:05;;;;;;;5.97;1.70;;;;;;;;;;5077032;28;20291;-83
2022/07/14 07:00:31;;;;;;;6.50;1.50;;;22.00;92.00;;;;;;5077423;28;20185;-82
2022/07/14 07:02:57;;;;;;;3.10;1.30;;;;;;;;;;5077876;28;20277;-82
2022/07/14 07:08:07;;;;;;;1.30;1.20;;;22.30;92.40;;;;;;5078515;28;20185;-83
2022/07/14 07:10:40;;;;;;;2.37;1.60;;;;;;;;;;5078090;28;20259;-84
2022/07/14 07:13:07;;;;;;;9.73;2.20;;;22.60;99.90;;;;;;5076807;28;20709;-84
2022/07/14 07:15:35;;;;;;;6.20;2.43;;;22.40;92.60;;;;;;5076436;28;20187;-83
2022/07/14 07:18:01;;;;;;;5.43;1.90;;;;;;;;;;5078447;28;20222;-83
2022/07/14 07:20:27;;;;;;;1.87;1.40;;;22.60;99.90;;;;;;5078171;28;20177;-84
2022/07/14 07:22:53;;;;;;;3.10;1.70;;;;;;;;;;5076467;28;20224;-83
2022/07/14 07:25:19;;;;;;;2.80;1.30;;;22.60;99.90;;;;;;5078215;28;20177;-83
2022/07/14 07:27:45;;;;;;;3.17;1.10;;;;;;;;;;5076643;28;20187;-83
2022/07/14 07:30:11;;;;;;;3.23;1.30;;;;;;;;;;5077240;28;20184;-84
2022/07/14 07:32:37;;;;;;;2.70;1.73;;;;;;;;;;5078900;28;20275;-83
2022/07/14 07:35:04;;;;;;;3.43;1.40;;;22.80;91.00;;;;;;5078985;28;20242;-84
2022/07/14 07:37:30;;;;;;;2.40;1.67;;;22.90;99.90;;;;;;5079542;28;20197;-84
2022/07/14 07:40:00;;;;;;;2.03;1.20;;;;;;;;;;5078193;28;20175;-84
2022/07/14 07:42:26;;;;;;;6.20;1.80;;;23.40;99.30;;;;;;5082389;28;20173;-84
2022/07/14 07:44:54;;;;;;;1.50;1.30;;;;;;;;;;5084357;28;20215;-84
2022/07/14 07:47:20;;;;;;;6.53;1.37;;;;;;;;;;5082617;28;20543;-84
2022/07/14 07:49:46;;;;;;;4.23;1.40;;;;;;;;;;5084999;28;20194;-84
2022/07/14 07:52:12;;;;;;;1.40;1.23;;;;;;;;;;5085539;28;20185;-84
2022/07/14 07:54:38;;;;;;;4.53;1.23;;;;;;;;;;5084513;28;20204;-84
2022/07/14 07:57:05;;;;;;;2.07;1.20;;;;;;;;;;5082040;28;20197;-83
2022/07/14 07:59:31;;;;;;;3.13;1.13;;;;;;;;;;5082057;28;20256;-84
2022/07/14 08:01:57;;;;;;;7.00;1.30;;;;;;;;;;5082100;28;20170;-84
2022/07/14 08:04:23;;;;;;;4.13;1.20;;;;;;;;;;5080942;28;20212;-84
2022/07/14 08:06:49;;;;;;;5.20;1.50;;;;;;;;;;5080903;28;20586;-84
2022/07/14 08:09:15;;;;;;;2.57;0.90;;;;;;;;;;5083470;28;20202;-84
2022/07/14 08:11:42;;;;;;;3.70;1.40;;;25.00;82.30;;;;;;5084943;28;20174;-84
2022/07/14 08:14:47;;;;;;;4.60;1.37;;;25.00;84.90;;;;;;5081791;28;20208;-85
2022/07/14 08:16:56;;;;;;;2.20;1.00;;;25.20;84.70;;;;;;5083048;28;20248;-84
2022/07/14 08:19:22;;;;;;;5.00;1.40;;;;;;;;;;5083174;28;20172;-84
2022/07/14 08:21:48;;;;;;;3.10;1.20;;;;;;;;;;5081282;28;20228;-85
2022/07/14 08:24:14;;;;;;;2.20;1.07;;;;;;;;;;5082559;28;20191;-84
2022/07/14 08:26:40;;;;;;;2.87;1.50;;;;;;;;;;5082080;28;20171;-83
2022/07/14 08:29:07;;;;;;;3.60;1.20;;;26.00;84.00;;;;;;5082353;28;20256;-84
2022/07/14 08:31:33;;;;;;;4.17;1.60;;;;;;;;;;5081338;28;20207;-83
2022/07/14 08:33:59;;;;;;;3.90;1.30;;;;;;;;;;5078781;28;20193;-83
2022/07/14 08:36:26;;;;;;;1.93;1.30;;;;;;;;;;5077313;28;20188;-84
2022/07/14 08:38:52;;;;;;;1.73;1.20;;;;;;;;;;5076384;28;20223;-82
2022/07/14 08:41:18;;;;;;;2.70;1.17;;;;;;;;;;5077005;28;20173;-84
2022/07/14 08:43:46;;;;;;;1.30;1.10;;;26.70;81.00;;;;;;5080389;28;20695;-82
2022/07/14 08:46:12;;;;;;;3.43;1.00;;;26.80;85.90;;;;;;5082774;28;20181;-84
2022/07/14 08:48:39;;;;;;;1.23;0.90;;;;;;;;;;5081795;28;20645;-85
2022/07/14 08:51:06;;;;;;;1.53;1.03;;;27.30;67.40;;;;;;5081246;28;20189;-83
2022/07/14 08:53:32;;;;;;;1.00;0.90;;;;;;;;;;5081783;28;20275;-82
2022/07/14 08:55:58;;;;;;;1.97;1.03;;;;;;;;;;5081798;28;20188;-82
2022/07/14 08:58:25;;;;;;;2.33;1.40;;;27.60;67.30;;;;;;5083380;28;20674;-83
2022/07/14 09:00:51;;;;;;;2.27;1.13;;;;;;;;;;5082339;28;20230;-83
2022/07/14 09:03:17;;;;;;;1.07;0.97;;;;;;;;;;5081020;28;20607;-82
2022/07/14 09:05:44;;;;;;;1.17;0.80;;;28.20;68.80;;;;;;5081801;28;20169;-83
2022/07/14 09:08:12;;;;;;;1.20;0.90;;;28.30;60.00;;;;;;5080890;28;20200;-83
2022/07/14 09:10:39;;;;;;;0.80;0.80;;;28.30;60.00;;;;;;5082384;28;20219;-83
2022/07/14 09:13:13;;;;;;;1.33;0.80;;;28.70;63.60;;;;;;5081340;28;20703;-83
2022/07/14 09:15:46;;;;;;;0.90;0.70;;;;;;;;;;5081813;28;20184;-83
2022/07/14 09:18:23;;;;;;;2.90;0.70;;;28.80;61.10;;;;;;5082737;28;20192;-83
2022/07/14 09:20:49;;;;;;;2.03;0.90;;;29.10;61.20;;;;;;5083298;28;20162;-83
2022/07/14 09:23:24;;;;;;;1.80;0.90;;;29.20;60.80;;;;;;5082003;28;20223;-84
2022/07/14 09:25:50;;;;;;;0.80;0.80;;;29.20;59.30;;;;;;5081495;28;20248;-84
2022/07/14 09:28:25;;;;;;;1.77;1.00;;;29.20;59.40;;;;;;5082889;28;20662;-83
2022/07/14 09:30:51;;;;;;;2.53;0.73;;;29.50;61.20;;;;;;5081680;28;20176;-82
2022/07/14 09:33:17;;;;;;;1.30;0.80;;;;;;;;;;5081785;28;20258;-82
2022/07/14 09:35:43;;;;;;;2.63;1.00;;;;;;;;;;5083892;28;20181;-83
2022/07/14 09:38:18;;;;;;;2.03;1.00;;;29.70;61.20;;;;;;5081980;28;20212;-83
2022/07/14 09:40:45;;;;;;;1.67;0.90;;;29.90;64.40;;;;;;5081615;28;20169;-83
2022/07/14 09:43:14;;;;;;;4.63;0.83;;;;;;;;;;5082763;28;20193;-83
2022/07/14 09:45:45;;;;;;;1.20;0.97;;;30.00;59.50;;;;;;5094687;28;20181;-81
2022/07/14 09:48:16;;;;;;;3.60;1.00;;;30.00;58.40;;;;;;5095280;28;20169;-85
2022/07/14 09:50:47;;;;;;;0.87;0.80;;;30.10;62.90;;;;;;5081264;28;20179;-82
2022/07/14 09:53:16;;;;;;;1.10;0.97;;;30.40;59.90;;;;;;5082530;28;20558;-83
2022/07/14 09:55:48;;;;;;;6.97;1.10;;;30.40;58.60;;;;;;5080654;28;20188;-83
2022/07/14 09:58:13;;;;;;;0.80;0.80;;;30.50;61.20;;;;;;5083196;28;20191;-85
2022/07/14 10:00:41;;;;;;;0.93;0.83;;;30.60;58.80;;;;;;5081278;28;20178;-85
2022/07/14 10:03:07;;;;;;;1.60;0.80;;;30.50;55.90;;;;;;5082421;28;20194;-83
2022/07/14 10:05:34;;;;;;;3.77;1.10;;;30.40;56.80;;;;;;5081172;28;20201;-83
2022/07/14 10:08:02;;;;;;;2.13;0.90;;;30.30;59.10;;;;;;5081367;28;20180;-82
2022/07/14 10:10:35;;;;;;;1.53;1.07;;;30.40;57.70;;;;;;5083310;28;20182;-82
2022/07/14 10:13:04;;;;;;;4.93;1.30;;;30.70;58.80;;;;;;5081770;28;20289;-84
2022/07/14 10:15:30;;;;;;;1.17;1.00;;;30.70;61.60;;;;;;5083012;28;20181;-84
2022/07/14 10:17:59;;;;;;;4.70;1.23;;;30.80;56.70;;;;;;5081858;28;20233;-84
2022/07/14 10:20:26;;;;;;;2.50;0.90;;;30.90;57.30;;;;;;5082622;28;20545;-83
2022/07/14 10:22:55;;;;;;;0.97;0.87;;;30.90;60.90;;;;;;5081500;28;20205;-84
2022/07/14 10:25:20;;;;;;;1.27;0.87;;;30.90;60.80;;;;;;5081195;28;20185;-83
2022/07/14 10:27:48;;;;;;;2.30;0.90;;;31.10;59.00;;;;;;5078844;28;20178;-83
2022/07/14 10:30:15;;;;;;;1.00;0.90;;;31.20;58.30;;;;;;5078711;28;20173;-83
2022/07/14 10:32:46;;;;;;;4.50;0.90;;;31.20;55.70;;;;;;5078971;28;20204;-83
2022/07/14 10:35:51;;;;;;;1.33;0.60;;;31.30;63.80;;;;;;5079260;28;20209;-83
2022/07/14 10:38:41;;;;;;;0.90;0.80;;;31.40;55.40;;;;;;5078651;28;20205;-79
2022/07/14 10:41:46;;;;;;;2.80;1.00;;;31.40;52.90;;;;;;5078101;28;20501;-82
2022/07/14 10:44:16;;;;;;;0.60;0.60;;;31.30;56.10;;;;;;5074702;28;20189;-81
2022/07/14 10:46:43;;;;;;;3.13;0.90;;;31.50;53.50;;;;;;5075138;28;20238;-81
2022/07/14 10:49:12;;;;;;;1.73;0.70;;;31.50;55.40;;;;;;5081331;28;20194;-82
2022/07/14 10:51:45;;;;;;;1.33;0.90;;;31.60;53.60;;;;;;5081303;28;20172;-82
2022/07/14 10:54:30;;;;;;;1.77;0.80;;;31.80;51.40;;;;;;5081954;28;20270;-82
2022/07/14 10:57:11;;;;;;;0.80;0.80;;;31.90;52.20;;;;;;5081488;28;20233;-82
2022/07/14 10:59:38;;;;;;;0.80;0.70;;;32.00;54.90;;;;;;5079947;28;20202;-82
2022/07/14 11:02:15;;;;;;;3.10;0.97;;;32.10;54.60;;;;;;5080340;28;20176;-83
2022/07/14 11:05:07;;;;;;;2.70;0.80;;;31.90;47.90;;;;;;5080200;28;20195;-83
2022/07/14 11:07:40;;;;;;;1.90;0.80;;;31.90;50.80;;;;;;5080002;28;20186;-82
2022/07/14 11:10:26;;;;;;;2.77;0.80;;;31.60;50.20;;;;;;5081135;28;20284;-82
2022/07/14 11:13:04;;;;;;;1.97;0.90;;;31.60;50.40;;;;;;5079050;28;20209;-82
2022/07/14 11:15:43;;;;;;;4.40;1.00;;;31.70;51.40;;;;;;5078829;28;20658;-82
2022/07/14 11:18:18;;;;;;;1.13;1.00;;;31.90;50.10;;;;;;5081175;28;20189;-82
2022/07/14 11:21:06;;;;;;;1.47;1.20;;;32.00;54.50;;;;;;5084823;28;20207;-82
2022/07/14 11:23:37;;;;;;;1.40;0.87;;;32.20;54.40;;;;;;5090871;28;20193;-81
2022/07/14 11:26:27;;;;;;;2.77;1.20;;;32.20;51.10;;;;;;5086521;28;20168;-82
2022/07/14 11:28:52;;;;;;;3.40;1.17;;;32.40;56.00;;;;;;5080113;28;20598;-82
2022/07/14 11:31:22;;;;;;;2.00;1.00;;;32.60;50.70;;;;;;5080603;28;20670;-82
2022/07/14 11:36:38;;;;;;;2.93;1.50;;;32.60;51.70;;;;;;5081288;28;20177;-82
2022/07/14 11:39:34;;;;;;;3.80;1.23;;;32.50;51.70;;;;;;5079970;28;20229;-82
2022/07/14 11:42:11;;;;;;;2.23;1.10;;;32.50;52.30;;;;;;5077992;28;20190;-82
2022/07/14 11:44:40;;;;;;;1.33;1.10;;;32.60;52.80;;;;;;5081693;28;20557;-82
2022/07/14 11:47:15;;;;;;;1.50;1.10;;;32.80;52.50;;;;;;5081991;28;20184;-82
2022/07/14 11:49:42;;;;;;;1.57;1.10;;;33.00;51.40;;;;;;5082504;28;20208;-83
2022/07/14 11:52:09;;;;;;;3.60;1.33;;;33.10;56.00;;;;;;5081989;28;20215;-83
2022/07/14 11:54:35;;;;;;;1.73;1.13;;;33.20;51.70;;;;;;5082662;28;20200;-83
2022/07/14 11:57:03;;;;;;;3.37;1.33;;;33.40;53.90;;;;;;5080487;28;20241;-83
2022/07/14 11:59:30;;;;;;;2.03;1.00;;;33.50;53.00;;;;;;5081258;28;20168;-84
2022/07/14 12:02:16;;;;;;;1.00;1.00;;;33.50;53.10;;;;;;5081071;28;20177;-83
2022/07/14 12:04:55;;;;;;;2.40;1.17;;;33.50;53.00;;;;;;5079941;28;20285;-83
2022/07/14 12:07:23;;;;;;;2.07;1.10;;;33.60;51.80;;;;;;5079993;28;20175;-83
2022/07/14 12:09:49;;;;;;;3.70;1.30;;;33.70;50.60;;;;;;5081991;28;20176;-83
2022/07/14 12:12:17;;;;;;;1.47;1.37;;;33.80;54.70;;;;;;5081377;28;20636;-83
2022/07/14 12:14:51;;;;;;;1.30;1.20;;;33.80;53.30;;;;;;5084480;28;20193;-83
2022/07/14 12:17:18;;;;;;;1.33;1.20;;;33.80;50.70;;;;;;5083568;28;20299;-83
2022/07/14 12:19:45;;;;;;;1.33;1.10;;;33.90;53.20;;;;;;5082116;28;20226;-83
2022/07/14 12:22:11;;;;;;;2.20;1.20;;;34.00;51.60;;;;;;5083727;28;20624;-83
2022/07/14 12:24:38;;;;;;;4.10;1.20;;;33.90;49.90;;;;;;5083285;28;20260;-83
2022/07/14 12:27:06;;;;;;;1.20;1.10;;;33.70;49.90;;;;;;5081437;28;20608;-80
2022/07/14 12:29:34;;;;;;;2.20;1.50;;;33.70;51.90;;;;;;5087291;28;20269;-83
2022/07/14 12:32:01;;;;;;;1.60;1.30;;;33.70;51.20;;;;;;5085700;28;20183;-82
2022/07/14 12:34:28;;;;;;;2.57;1.20;;;33.70;49.80;;;;;;5087521;28;20747;-83
2022/07/14 12:37:03;;;;;;;3.97;1.50;;;33.60;52.10;;;;;;5087234;28;20194;-81
2022/07/14 12:39:30;;;;;;;3.20;1.27;;;33.70;49.50;;;;;;5088174;28;20194;-83
2022/07/14 12:41:55;;;;;;;1.30;1.20;;;33.60;50.80;;;;;;5087203;28;20182;-82
2022/07/14 12:44:21;;;;;;;1.77;1.27;;;33.70;53.40;;;;;;5087898;28;20199;-82
2022/07/14 12:47:14;;;;;;;1.10;1.00;;;33.90;49.50;;;;;;5086504;28;20174;-82
2022/07/14 12:49:46;;;;;;;2.83;1.10;;;34.20;50.10;;;;;;5080987;28;20176;-81
2022/07/14 12:52:13;;;;;;;2.53;1.10;;;34.40;56.50;;;;;;5095970;28;20183;-84
2022/07/14 12:54:40;;;;;;;2.20;1.20;;;34.50;50.30;;;;;;5091613;28;20229;-82
2022/07/14 12:57:07;;;;;;;2.43;1.20;;;34.60;48.20;;;;;;5082954;28;20643;-81
2022/07/14 12:59:37;;;;;;;1.83;1.13;;;34.70;47.80;;;;;;5080963;28;20178;-82
2022/07/14 13:02:09;;;;;;;3.10;1.20;;;34.60;47.00;;;;;;5080554;28;20639;-81
2022/07/14 13:04:44;;;;;;;2.30;1.20;;;34.60;47.60;;;;;;5080578;28;20661;-81
2022/07/14 13:07:30;;;;;;;1.20;1.10;;;34.40;46.60;;;;;;5080914;28;20194;-81
2022/07/14 13:10:17;;;;;;;1.57;1.10;;;34.30;49.10;;;;;;5080560;28;20176;-81
2022/07/14 13:12:44;;;;;;;1.50;1.40;;;34.40;47.10;;;;;;5080431;28;20224;-81
2022/07/14 13:15:25;;;;;;;1.60;1.30;;;34.50;48.60;;;;;;5079929;28;20178;-81
2022/07/14 13:17:56;;;;;;;3.73;1.30;;;34.40;47.80;;;;;;5080214;28;20208;-82
2022/07/14 13:23:30;;;;;;;2.00;1.10;;;34.20;47.50;;;;;;5082117;28;20202;-82
2022/07/14 13:26:11;;;;;;;1.87;1.40;;;34.20;47.30;;;;;;5081652;28;20184;-82
2022/07/14 13:28:39;;;;;;;1.30;1.20;;;34.20;47.90;;;;;;5082629;28;20214;-82
2022/07/14 13:31:19;;;;;;;3.63;1.60;;;34.30;49.70;;;;;;5079987;28;20185;-82
2022/07/14 13:33:46;;;;;;;2.13;1.20;;;34.50;47.60;;;;;;5079234;28;20200;-82
2022/07/14 13:36:13;;;;;;;3.03;1.20;;;34.60;51.00;;;;;;5081750;28;20207;-81
2022/07/14 13:38:41;;;;;;;2.07;1.30;;;34.40;47.10;;;;;;5081175;28;20222;-83
2022/07/14 13:41:09;;;;;;;3.53;1.40;;;34.40;48.40;;;;;;5081690;28;20203;-83